Aviation Digital Data Service (ADDS)

Output produced by METARs form (0302 UTC 23 October 2014)
found at http://aviationweather.gov/adds/metars/
 
KRME 222341Z 2300/2324 34005KT P6SM OVC025 
     TEMPO 2300/2304 5SM -SHRA BR 
     FM231500 32010KT P6SM OVC025